Tasman Sea — WDB5559 — position and weather

sailwx.info

Track history (hours):
 
Tides and Currents Weather Stations Pressure Air Temp Water Temp Dewpoint Dewpoint Depression Visibility Wind Speed Wind Dir Waves Ship Positions

Tasman Sea

Owner: Kirby Offshore Marine, LLC, Staten Island, NY. More information available from US FCC via Universal Licensing System and Coast Guard Vessel Documentation Center.

Last reported at 2016-Apr-29 14:26 UTC. Time now 2016-May-02 01:23 UTC.
Position N 42°32' W 070°07'.

Length 38 m; draft 6 m.

Type: Ship (hazmat cat B). MMSI: 366910960.

Date/timePositionNaut miles runAvg speedWind from/ knotsBaromVisibWave heightAir tempDewpointWater temp
2016-Apr-29 14:26N 42°32' W 070°07'8 8.9
2016-Apr-29 13:33N 42°30' W 070°18'9 8.6
2016-Apr-29 12:33N 42°28' W 070°29'8 8.5
2016-Apr-29 11:33N 42°26' W 070°40'9 8.6
2016-Apr-29 10:33N 42°23' W 070°52'7 7.5
2016-Apr-29 09:33N 42°21' W 071°01'3 3.0
2016-Apr-29 08:33N 42°24' W 071°01'0 0.1
2016-Apr-29 07:33N 42°24' W 071°01'0 0.0
2016-Apr-28 21:07N 42°24' W 071°01'0 0.0
2016-Apr-28 20:33N 42°24' W 071°01'2 2.0
2016-Apr-28 19:34N 42°23' W 071°03'1 1.0
2016-Apr-28 18:31N 42°22' W 071°02'0 0.0
2016-Apr-28 17:32N 42°22' W 071°02'0 0.2
2016-Apr-28 16:32N 42°21' W 071°02'0 0.1
2016-Apr-28 15:31N 42°21' W 071°02'0 0.0
2016-Apr-28 14:31N 42°21' W 071°02'0 0.0
2016-Apr-28 13:31N 42°21' W 071°02'0 0.0
2016-Apr-28 12:32N 42°21' W 071°02'0 0.0
2016-Apr-28 11:32N 42°21' W 071°02'0 0.0
2016-Apr-28 10:31N 42°21' W 071°02'0 0.0
2016-Apr-28 09:32N 42°21' W 071°02'0 0.0
2016-Apr-28 08:32N 42°21' W 071°02'0 0.0
2016-Apr-28 07:31N 42°21' W 071°02'0 0.0
2016-Apr-28 06:31N 42°21' W 071°02'0 0.0
2016-Apr-28 05:31N 42°21' W 071°02'0 0.1
2016-Apr-28 04:32N 42°21' W 071°02'2 1.8
2016-Apr-28 03:34N 42°23' W 071°01'1 0.0
2016-Apr-27 10:33N 42°24' W 071°01'0 0.0
2016-Apr-27 09:33N 42°24' W 071°01'1 0.9
2016-Apr-27 08:33N 42°23' W 071°01'3 2.6
2016-Apr-27 07:33N 42°21' W 071°01'6 6.2
2016-Apr-27 06:33N 42°23' W 070°53'7 7.4
2016-Apr-27 05:33N 42°27' W 070°44'8 7.6
2016-Apr-27 04:33N 42°31' W 070°36'8 7.8
2016-Apr-27 03:33N 42°35' W 070°27'8 7.7
2016-Apr-27 02:33N 42°40' W 070°18'8 7.7
2016-Apr-27 01:33N 42°44' W 070°10'  
2016-Apr-21 00:20N 40°30' W 073°57'6 7.2
2016-Apr-20 23:33N 40°34' W 074°02'6 5.9
2016-Apr-20 22:33N 40°40' W 074°03'0 0.2
2016-Apr-20 21:33N 40°40' W 074°03'0 0.1
2016-Apr-20 20:33N 40°40' W 074°03'5 4.9
2016-Apr-20 19:33N 40°38' W 074°09'1 0.7
2016-Apr-20 18:33N 40°39' W 074°10'0 0.0
2016-Apr-20 17:33N 40°39' W 074°10'0 0.0
2016-Apr-20 16:33N 40°39' W 074°10'0 0.0
2016-Apr-20 15:33N 40°39' W 074°10'2 2.4
2016-Apr-20 14:33N 40°39' W 074°07'1 0.2
2016-Apr-20 10:34N 40°39' W 074°06'3 2.6
2016-Apr-20 09:33N 40°40' W 074°03'0 0.0
2016-Apr-20 08:32N 40°40' W 074°03'0 0.0
2016-Apr-20 07:33N 40°40' W 074°03'0 0.0
2016-Apr-20 06:33N 40°40' W 074°03'0 0.0
2016-Apr-20 05:32N 40°40' W 074°03'0 0.0
2016-Apr-20 04:32N 40°40' W 074°03'0 0.0
2016-Apr-20 03:32N 40°40' W 074°03'0 0.0
2016-Apr-20 02:33N 40°40' W 074°03'0 0.0
2016-Apr-20 01:33N 40°40' W 074°03'0 0.1
2016-Apr-20 00:33N 40°40' W 074°02'0 0.0
2016-Apr-19 23:32N 40°40' W 074°02'0 0.1
2016-Apr-19 22:32N 40°40' W 074°03'0 0.0
2016-Apr-19 21:33N 40°40' W 074°03'0 0.1
2016-Apr-19 20:33N 40°40' W 074°03'0 0.0
2016-Apr-19 19:32N 40°40' W 074°03'0 0.0
2016-Apr-19 18:32N 40°40' W 074°03'0 0.0
2016-Apr-19 17:32N 40°40' W 074°03'0 0.0
2016-Apr-19 16:32N 40°40' W 074°03'0 0.0
2016-Apr-19 15:32N 40°40' W 074°03'0 0.0
2016-Apr-19 14:34N 40°40' W 074°03'  
Track history (hours):
 
Tides and Currents Weather Stations Pressure Air Temp Water Temp Dewpoint Dewpoint Depression Visibility Wind Speed Wind Dir Waves Ship Positions

Tasman Sea

Owner: Kirby Offshore Marine, LLC, Staten Island, NY. More information available from US FCC via Universal Licensing System and Coast Guard Vessel Documentation Center.

Last reported at 2016-Apr-29 14:26 UTC. Time now 2016-May-02 01:23 UTC.
Position N 42°32' W 070°07'.

Length 38 m; draft 6 m.

Type: Ship (hazmat cat B). MMSI: 366910960.

Date/timePositionNaut miles runAvg speedWind from/ knotsBaromVisibWave heightAir tempDewpointWater temp
2016-Apr-29 14:26N 42°32' W 070°07'8 8.9
2016-Apr-29 13:33N 42°30' W 070°18'9 8.6
2016-Apr-29 12:33N 42°28' W 070°29'8 8.5
2016-Apr-29 11:33N 42°26' W 070°40'9 8.6
2016-Apr-29 10:33N 42°23' W 070°52'7 7.5
2016-Apr-29 09:33N 42°21' W 071°01'3 3.0
2016-Apr-29 08:33N 42°24' W 071°01'0 0.1
2016-Apr-29 07:33N 42°24' W 071°01'0 0.0
2016-Apr-28 21:07N 42°24' W 071°01'0 0.0
2016-Apr-28 20:33N 42°24' W 071°01'2 2.0
2016-Apr-28 19:34N 42°23' W 071°03'1 1.0
2016-Apr-28 18:31N 42°22' W 071°02'0 0.0
2016-Apr-28 17:32N 42°22' W 071°02'0 0.2
2016-Apr-28 16:32N 42°21' W 071°02'0 0.1
2016-Apr-28 15:31N 42°21' W 071°02'0 0.0
2016-Apr-28 14:31N 42°21' W 071°02'0 0.0
2016-Apr-28 13:31N 42°21' W 071°02'0 0.0
2016-Apr-28 12:32N 42°21' W 071°02'0 0.0
2016-Apr-28 11:32N 42°21' W 071°02'0 0.0
2016-Apr-28 10:31N 42°21' W 071°02'0 0.0
2016-Apr-28 09:32N 42°21' W 071°02'0 0.0
2016-Apr-28 08:32N 42°21' W 071°02'0 0.0
2016-Apr-28 07:31N 42°21' W 071°02'0 0.0
2016-Apr-28 06:31N 42°21' W 071°02'0 0.0
2016-Apr-28 05:31N 42°21' W 071°02'0 0.1
2016-Apr-28 04:32N 42°21' W 071°02'2 1.8
2016-Apr-28 03:34N 42°23' W 071°01'1 0.0
2016-Apr-27 10:33N 42°24' W 071°01'0 0.0
2016-Apr-27 09:33N 42°24' W 071°01'1 0.9
2016-Apr-27 08:33N 42°23' W 071°01'3 2.6
2016-Apr-27 07:33N 42°21' W 071°01'6 6.2
2016-Apr-27 06:33N 42°23' W 070°53'7 7.4
2016-Apr-27 05:33N 42°27' W 070°44'8 7.6
2016-Apr-27 04:33N 42°31' W 070°36'8 7.8
2016-Apr-27 03:33N 42°35' W 070°27'8 7.7
2016-Apr-27 02:33N 42°40' W 070°18'8 7.7
2016-Apr-27 01:33N 42°44' W 070°10'  
2016-Apr-21 00:20N 40°30' W 073°57'6 7.2
2016-Apr-20 23:33N 40°34' W 074°02'6 5.9
2016-Apr-20 22:33N 40°40' W 074°03'0 0.2
2016-Apr-20 21:33N 40°40' W 074°03'0 0.1
2016-Apr-20 20:33N 40°40' W 074°03'5 4.9
2016-Apr-20 19:33N 40°38' W 074°09'1 0.7
2016-Apr-20 18:33N 40°39' W 074°10'0 0.0
2016-Apr-20 17:33N 40°39' W 074°10'0 0.0
2016-Apr-20 16:33N 40°39' W 074°10'0 0.0
2016-Apr-20 15:33N 40°39' W 074°10'2 2.4
2016-Apr-20 14:33N 40°39' W 074°07'1 0.2
2016-Apr-20 10:34N 40°39' W 074°06'3 2.6
2016-Apr-20 09:33N 40°40' W 074°03'0 0.0
2016-Apr-20 08:32N 40°40' W 074°03'0 0.0
2016-Apr-20 07:33N 40°40' W 074°03'0 0.0
2016-Apr-20 06:33N 40°40' W 074°03'0 0.0
2016-Apr-20 05:32N 40°40' W 074°03'0 0.0
2016-Apr-20 04:32N 40°40' W 074°03'0 0.0
2016-Apr-20 03:32N 40°40' W 074°03'0 0.0
2016-Apr-20 02:33N 40°40' W 074°03'0 0.0
2016-Apr-20 01:33N 40°40' W 074°03'0 0.1
2016-Apr-20 00:33N 40°40' W 074°02'0 0.0
2016-Apr-19 23:32N 40°40' W 074°02'0 0.1
2016-Apr-19 22:32N 40°40' W 074°03'0 0.0
2016-Apr-19 21:33N 40°40' W 074°03'0 0.1
2016-Apr-19 20:33N 40°40' W 074°03'0 0.0
2016-Apr-19 19:32N 40°40' W 074°03'0 0.0
2016-Apr-19 18:32N 40°40' W 074°03'0 0.0
2016-Apr-19 17:32N 40°40' W 074°03'0 0.0
2016-Apr-19 16:32N 40°40' W 074°03'0 0.0
2016-Apr-19 15:32N 40°40' W 074°03'0 0.0
2016-Apr-19 14:34N 40°40' W 074°03'  

Dump ship's entire track history